OAL638 SANU-SGAS
Flight info
| Callsign | OAL638 |
|---|---|
| Flight time | 1h 55m |
| Altitude | 35000 |
| Route | KIBUN W24 JUA UW24 CBA UL531 ERE UW14 BITUS UP526 SAMGU DCT SGAS DCT SAMGU SAMGU |
| Aircraft | B738/M-VGDW/C |
Departure
| Time | 2026-05-07 17:38 |
|---|---|
| Airport | Domingo Faustino Sarmiento Airport (SANU) |
Arrival
| Time | 2026-05-07 19:33 |
|---|---|
| Airport | Silvio Pettirossi International Airport (SGAS) |
| Time | Latitude | Longitude | Altitude | Speed | Heading |
|---|---|---|---|---|---|
| 2026-05-07 17:19 | -31.57189 | -68.42215 | 1953 ft | 0 kts | 211° |
| 2026-05-07 17:28 | -31.57176 | -68.42206 | 1954 ft | 3 kts | 222° |
| 2026-05-07 17:28 | -31.57171 | -68.42185 | 1959 ft | 3 kts | 305° |
| 2026-05-07 17:29 | -31.57188 | -68.42176 | 1953 ft | 3 kts | 28° |
| 2026-05-07 17:29 | -31.57197 | -68.42184 | 1953 ft | 0 kts | 75° |
| 2026-05-07 17:29 | -31.57186 | -68.42169 | 1954 ft | 3 kts | 38° |
| 2026-05-07 17:29 | -31.57170 | -68.42155 | 1953 ft | 3 kts | 38° |
| 2026-05-07 17:30 | -31.57167 | -68.42152 | 1953 ft | 0 kts | 38° |
| 2026-05-07 17:33 | -31.57159 | -68.42147 | 1955 ft | 8 kts | 26° |
| 2026-05-07 17:33 | -31.57067 | -68.42171 | 1953 ft | 15 kts | 328° |
| 2026-05-07 17:33 | -31.56982 | -68.42129 | 1953 ft | 14 kts | 44° |
| 2026-05-07 17:33 | -31.56912 | -68.42050 | 1953 ft | 14 kts | 44° |
| 2026-05-07 17:34 | -31.56845 | -68.41974 | 1955 ft | 13 kts | 44° |
| 2026-05-07 17:34 | -31.56782 | -68.41900 | 1959 ft | 13 kts | 45° |
| 2026-05-07 17:34 | -31.56707 | -68.41848 | 1955 ft | 14 kts | 17° |
| 2026-05-07 17:34 | -31.56578 | -68.41834 | 1955 ft | 21 kts | 1° |
| 2026-05-07 17:35 | -31.56433 | -68.41838 | 1956 ft | 20 kts | 356° |
| 2026-05-07 17:35 | -31.56294 | -68.41841 | 1958 ft | 20 kts | 0° |
| 2026-05-07 17:35 | -31.56163 | -68.41841 | 1956 ft | 16 kts | 357° |
| 2026-05-07 17:35 | -31.56064 | -68.41870 | 1956 ft | 11 kts | 28° |
| 2026-05-07 17:36 | -31.56069 | -68.41846 | 1956 ft | 3 kts | 170° |
| 2026-05-07 17:36 | -31.56083 | -68.41844 | 1956 ft | 0 kts | 176° |
| 2026-05-07 17:36 | -31.56091 | -68.41844 | 1956 ft | 3 kts | 176° |
| 2026-05-07 17:37 | -31.56107 | -68.41843 | 1956 ft | 5 kts | 177° |
| 2026-05-07 17:37 | -31.56348 | -68.41839 | 1957 ft | 72 kts | 179° |
| 2026-05-07 17:37 | -31.57120 | -68.41832 | 1952 ft | 147 kts | 180° |
| 2026-05-07 17:37 | -31.58304 | -68.41814 | 2330 ft | 180 kts | 176° |
| 2026-05-07 17:38 | -31.59402 | -68.41111 | 3132 ft | 202 kts | 131° |
| 2026-05-07 17:38 | -31.59954 | -68.39455 | 3416 ft | 239 kts | 96° |
| 2026-05-07 17:38 | -31.59647 | -68.37446 | 3836 ft | 263 kts | 68° |
| 2026-05-07 17:38 | -31.58654 | -68.35706 | 4529 ft | 260 kts | 55° |
| 2026-05-07 17:39 | -31.57890 | -68.33778 | 5054 ft | 266 kts | 80° |
| 2026-05-07 17:39 | -31.57638 | -68.31594 | 5767 ft | 273 kts | 84° |
| 2026-05-07 17:39 | -31.57417 | -68.29369 | 6587 ft | 277 kts | 84° |
| 2026-05-07 17:39 | -31.57386 | -68.27107 | 7343 ft | 280 kts | 104° |
| 2026-05-07 17:40 | -31.58282 | -68.25130 | 8147 ft | 275 kts | 140° |
| 2026-05-07 17:40 | -31.59917 | -68.24028 | 8954 ft | 274 kts | 166° |
| 2026-05-07 17:40 | -31.61813 | -68.23852 | 9754 ft | 275 kts | 189° |
| 2026-05-07 17:40 | -31.63612 | -68.24575 | 10462 ft | 280 kts | 211° |
| 2026-05-07 17:41 | -31.65105 | -68.26176 | 10648 ft | 306 kts | 234° |
| 2026-05-07 17:41 | -31.66048 | -68.28515 | 10901 ft | 330 kts | 254° |
| 2026-05-07 17:41 | -31.66112 | -68.31235 | 11514 ft | 344 kts | 279° |
| 2026-05-07 17:41 | -31.65068 | -68.33782 | 12311 ft | 355 kts | 306° |
| 2026-05-07 17:42 | -31.63299 | -68.35833 | 13109 ft | 360 kts | 314° |
| 2026-05-07 17:42 | -31.61450 | -68.37848 | 13780 ft | 365 kts | 311° |
| 2026-05-07 17:42 | -31.59675 | -68.39984 | 14390 ft | 368 kts | 308° |
| 2026-05-07 17:42 | -31.57932 | -68.42215 | 14959 ft | 374 kts | 307° |
| 2026-05-07 17:43 | -31.55841 | -68.44131 | 15467 ft | 395 kts | 329° |
| 2026-05-07 17:43 | -31.53134 | -68.44968 | 16010 ft | 414 kts | 354° |
| 2026-05-07 17:43 | -31.50244 | -68.44529 | 16490 ft | 429 kts | 18° |
| 2026-05-07 17:43 | -31.47614 | -68.42831 | 16906 ft | 436 kts | 43° |
| 2026-05-07 17:44 | -31.45694 | -68.40115 | 17387 ft | 432 kts | 68° |
| 2026-05-07 17:44 | -31.44783 | -68.36845 | 17902 ft | 418 kts | 92° |
| 2026-05-07 17:44 | -31.44984 | -68.33576 | 18443 ft | 394 kts | 117° |
| 2026-05-07 17:44 | -31.46194 | -68.30855 | 18963 ft | 367 kts | 141° |
| 2026-05-07 17:45 | -31.48103 | -68.29026 | 19526 ft | 350 kts | 156° |
| 2026-05-07 17:45 | -31.50095 | -68.27334 | 20046 ft | 361 kts | 148° |
| 2026-05-07 17:45 | -31.51786 | -68.25061 | 20541 ft | 383 kts | 133° |
| 2026-05-07 17:45 | -31.52941 | -68.22155 | 21071 ft | 405 kts | 119° |
| 2026-05-07 17:46 | -31.53643 | -68.18895 | 21579 ft | 418 kts | 112° |
| 2026-05-07 17:46 | -31.54171 | -68.15518 | 22090 ft | 423 kts | 111° |
| 2026-05-07 17:46 | -31.54675 | -68.12147 | 22569 ft | 426 kts | 112° |
| 2026-05-07 17:46 | -31.55195 | -68.08711 | 23016 ft | 430 kts | 112° |
| 2026-05-07 17:47 | -31.55694 | -68.05238 | 23522 ft | 435 kts | 110° |
| 2026-05-07 17:47 | -31.56008 | -68.01673 | 23900 ft | 447 kts | 104° |
| 2026-05-07 17:47 | -31.55995 | -67.97984 | 24313 ft | 456 kts | 98° |
| 2026-05-07 17:47 | -31.55792 | -67.94244 | 24759 ft | 462 kts | 96° |
| 2026-05-07 17:48 | -31.55498 | -67.90485 | 25269 ft | 464 kts | 95° |
| 2026-05-07 17:48 | -31.55177 | -67.86721 | 25754 ft | 463 kts | 96° |
| 2026-05-07 17:48 | -31.54981 | -67.84181 | 26038 ft | 463 kts | 96° |
| 2026-05-07 17:48 | -31.54724 | -67.80475 | 26413 ft | 463 kts | 97° |
| 2026-05-07 17:49 | -31.54485 | -67.76702 | 26768 ft | 465 kts | 97° |
| 2026-05-07 17:49 | -31.54257 | -67.72915 | 27106 ft | 467 kts | 97° |
| 2026-05-07 17:49 | -31.54032 | -67.69115 | 27420 ft | 469 kts | 97° |
| 2026-05-07 17:49 | -31.53805 | -67.65294 | 27743 ft | 471 kts | 97° |
| 2026-05-07 17:50 | -31.53574 | -67.61457 | 28079 ft | 472 kts | 97° |
| 2026-05-07 17:50 | -31.53339 | -67.57611 | 28407 ft | 474 kts | 97° |
| 2026-05-07 17:50 | -31.53101 | -67.53759 | 28715 ft | 475 kts | 97° |
| 2026-05-07 17:50 | -31.52861 | -67.49886 | 29036 ft | 477 kts | 97° |
| 2026-05-07 17:51 | -31.52618 | -67.46003 | 29353 ft | 478 kts | 97° |
| 2026-05-07 17:51 | -31.52373 | -67.42109 | 29651 ft | 480 kts | 97° |
| 2026-05-07 17:51 | -31.52127 | -67.38202 | 29930 ft | 482 kts | 97° |
| 2026-05-07 17:51 | -31.51879 | -67.34272 | 30182 ft | 484 kts | 97° |
| 2026-05-07 17:52 | -31.51628 | -67.30341 | 30472 ft | 483 kts | 97° |
| 2026-05-07 17:52 | -31.51374 | -67.26414 | 30811 ft | 482 kts | 97° |
| 2026-05-07 17:52 | -31.51120 | -67.22507 | 31153 ft | 481 kts | 97° |
| 2026-05-07 17:52 | -31.50867 | -67.18606 | 31466 ft | 480 kts | 97° |
| 2026-05-07 17:53 | -31.50614 | -67.14705 | 31750 ft | 480 kts | 98° |
| 2026-05-07 17:53 | -31.50364 | -67.10852 | 32033 ft | 480 kts | 98° |
| 2026-05-07 17:53 | -31.50109 | -67.06954 | 32324 ft | 479 kts | 98° |
| 2026-05-07 17:53 | -31.49854 | -67.03059 | 32600 ft | 479 kts | 98° |
| 2026-05-07 17:54 | -31.49597 | -66.99168 | 32859 ft | 479 kts | 98° |
| 2026-05-07 17:54 | -31.49339 | -66.95268 | 33097 ft | 480 kts | 98° |
| 2026-05-07 17:54 | -31.49080 | -66.91370 | 33356 ft | 481 kts | 98° |
| 2026-05-07 17:54 | -31.48820 | -66.87466 | 33596 ft | 481 kts | 98° |
| 2026-05-07 17:55 | -31.48586 | -66.83560 | 33830 ft | 481 kts | 98° |
| 2026-05-07 17:55 | -31.48370 | -66.79650 | 34062 ft | 481 kts | 99° |
| 2026-05-07 17:55 | -31.48160 | -66.75738 | 34219 ft | 482 kts | 99° |
| 2026-05-07 17:55 | -31.47950 | -66.71804 | 34356 ft | 485 kts | 98° |
| 2026-05-07 17:56 | -31.47736 | -66.67859 | 34511 ft | 486 kts | 98° |
| 2026-05-07 17:56 | -31.47516 | -66.63902 | 34698 ft | 487 kts | 98° |
| 2026-05-07 17:56 | -31.47291 | -66.59937 | 34884 ft | 488 kts | 98° |
| 2026-05-07 17:56 | -31.47064 | -66.55967 | 34984 ft | 490 kts | 97° |
| 2026-05-07 17:57 | -31.46680 | -66.49316 | 35000 ft | 493 kts | 97° |
| 2026-05-07 17:57 | -31.46129 | -66.39963 | 34994 ft | 492 kts | 97° |
| 2026-05-07 17:58 | -31.45656 | -66.31980 | 34983 ft | 491 kts | 97° |
| 2026-05-07 17:58 | -31.45179 | -66.24011 | 34983 ft | 490 kts | 96° |
| 2026-05-07 17:59 | -31.44700 | -66.16051 | 34976 ft | 490 kts | 96° |
| 2026-05-07 17:59 | -31.44216 | -66.08088 | 34974 ft | 490 kts | 96° |
| 2026-05-07 18:00 | -31.43729 | -66.00162 | 34969 ft | 492 kts | 95° |
| 2026-05-07 18:00 | -31.43232 | -65.92157 | 34961 ft | 494 kts | 95° |
| 2026-05-07 18:01 | -31.42727 | -65.84118 | 34967 ft | 495 kts | 95° |
| 2026-05-07 18:01 | -31.42216 | -65.76070 | 34965 ft | 497 kts | 95° |
| 2026-05-07 18:02 | -31.41438 | -65.63953 | 34959 ft | 498 kts | 94° |
| 2026-05-07 18:03 | -31.40911 | -65.55868 | 34964 ft | 498 kts | 94° |
| 2026-05-07 18:03 | -31.40380 | -65.47779 | 34963 ft | 498 kts | 93° |
| 2026-05-07 18:04 | -31.39844 | -65.39695 | 34969 ft | 498 kts | 93° |
| 2026-05-07 18:04 | -31.39294 | -65.31674 | 34973 ft | 496 kts | 93° |
| 2026-05-07 18:05 | -31.38768 | -65.23628 | 34977 ft | 496 kts | 92° |
| 2026-05-07 18:05 | -31.38216 | -65.15593 | 34976 ft | 495 kts | 92° |
| 2026-05-07 18:06 | -31.37656 | -65.07556 | 34978 ft | 495 kts | 91° |
| 2026-05-07 18:06 | -31.37095 | -64.99548 | 34973 ft | 495 kts | 91° |
| 2026-05-07 18:07 | -31.36531 | -64.91544 | 34976 ft | 495 kts | 91° |
| 2026-05-07 18:07 | -31.35960 | -64.83501 | 34961 ft | 496 kts | 90° |
| 2026-05-07 18:08 | -31.35384 | -64.75467 | 34951 ft | 496 kts | 90° |
| 2026-05-07 18:08 | -31.34803 | -64.67438 | 34940 ft | 496 kts | 90° |
| 2026-05-07 18:09 | -31.34217 | -64.59401 | 34925 ft | 496 kts | 89° |
| 2026-05-07 18:09 | -31.33626 | -64.51368 | 34916 ft | 495 kts | 89° |
| 2026-05-07 18:10 | -31.33030 | -64.43351 | 34893 ft | 495 kts | 89° |
| 2026-05-07 18:10 | -31.32431 | -64.35337 | 34894 ft | 494 kts | 88° |
| 2026-05-07 18:11 | -31.31828 | -64.27348 | 34889 ft | 493 kts | 88° |
| 2026-05-07 18:11 | -31.30205 | -64.19545 | 34894 ft | 498 kts | 68° |
| 2026-05-07 18:12 | -31.26651 | -64.12618 | 34900 ft | 498 kts | 53° |
| 2026-05-07 18:12 | -31.22518 | -64.06166 | 34890 ft | 498 kts | 53° |
| 2026-05-07 18:13 | -31.18406 | -63.99656 | 34892 ft | 498 kts | 53° |
| 2026-05-07 18:13 | -31.14332 | -63.93125 | 34893 ft | 498 kts | 53° |
| 2026-05-07 18:14 | -31.10261 | -63.86588 | 34894 ft | 497 kts | 53° |
| 2026-05-07 18:14 | -31.06193 | -63.80072 | 34896 ft | 497 kts | 53° |
| 2026-05-07 18:15 | -31.02113 | -63.73553 | 34891 ft | 496 kts | 52° |
| 2026-05-07 18:15 | -30.98043 | -63.67060 | 34890 ft | 496 kts | 52° |
| 2026-05-07 18:16 | -30.93971 | -63.60574 | 34888 ft | 496 kts | 52° |
| 2026-05-07 18:16 | -30.89939 | -63.54126 | 34888 ft | 496 kts | 52° |
| 2026-05-07 18:17 | -30.85966 | -63.47570 | 34885 ft | 495 kts | 52° |
| 2026-05-07 18:17 | -30.82007 | -63.41029 | 34884 ft | 494 kts | 52° |
| 2026-05-07 18:18 | -30.78031 | -63.34507 | 34881 ft | 493 kts | 52° |
| 2026-05-07 18:18 | -30.74028 | -63.28046 | 34883 ft | 492 kts | 51° |
| 2026-05-07 18:19 | -30.69993 | -63.21640 | 34876 ft | 490 kts | 50° |
| 2026-05-07 18:19 | -30.65968 | -63.15250 | 34879 ft | 489 kts | 50° |
| 2026-05-07 18:20 | -30.61958 | -63.08877 | 34874 ft | 488 kts | 50° |
| 2026-05-07 18:20 | -30.57979 | -63.02557 | 34873 ft | 487 kts | 50° |
| 2026-05-07 18:21 | -30.53981 | -62.96219 | 34871 ft | 487 kts | 49° |
| 2026-05-07 18:21 | -30.49982 | -62.89888 | 34873 ft | 486 kts | 49° |
| 2026-05-07 18:22 | -30.45980 | -62.83562 | 34877 ft | 486 kts | 49° |
| 2026-05-07 18:22 | -30.41977 | -62.77245 | 34873 ft | 486 kts | 49° |
| 2026-05-07 18:23 | -30.37969 | -62.70929 | 34873 ft | 486 kts | 48° |
| 2026-05-07 18:23 | -30.33953 | -62.64627 | 34871 ft | 486 kts | 48° |
| 2026-05-07 18:24 | -30.29918 | -62.58346 | 34872 ft | 486 kts | 47° |
| 2026-05-07 18:24 | -30.25882 | -62.52073 | 34868 ft | 486 kts | 47° |
| 2026-05-07 18:25 | -30.21849 | -62.45807 | 34867 ft | 485 kts | 47° |
| 2026-05-07 18:25 | -30.17838 | -62.39583 | 34865 ft | 485 kts | 47° |
| 2026-05-07 18:26 | -30.13804 | -62.33331 | 34858 ft | 485 kts | 46° |
| 2026-05-07 18:26 | -30.09776 | -62.27101 | 34855 ft | 484 kts | 46° |
| 2026-05-07 18:27 | -30.05749 | -62.20880 | 34849 ft | 483 kts | 46° |
| 2026-05-07 18:27 | -30.01731 | -62.14683 | 34850 ft | 482 kts | 46° |
| 2026-05-07 18:28 | -29.97714 | -62.08497 | 34858 ft | 481 kts | 46° |
| 2026-05-07 18:28 | -29.93704 | -62.02331 | 34857 ft | 480 kts | 45° |
| 2026-05-07 18:29 | -29.89724 | -61.96218 | 34857 ft | 479 kts | 45° |
| 2026-05-07 18:29 | -29.86313 | -61.89529 | 34851 ft | 494 kts | 63° |
| 2026-05-07 18:30 | -29.84179 | -61.81955 | 34851 ft | 497 kts | 66° |
| 2026-05-07 18:30 | -29.82102 | -61.74373 | 34852 ft | 495 kts | 65° |
| 2026-05-07 18:31 | -29.79977 | -61.66840 | 34849 ft | 493 kts | 64° |
| 2026-05-07 18:31 | -29.77828 | -61.59353 | 34847 ft | 491 kts | 64° |
| 2026-05-07 18:32 | -29.75681 | -61.51904 | 34848 ft | 489 kts | 64° |
| 2026-05-07 18:32 | -29.73542 | -61.44492 | 34853 ft | 487 kts | 64° |
| 2026-05-07 18:33 | -29.71427 | -61.37176 | 34843 ft | 484 kts | 63° |
| 2026-05-07 18:33 | -29.69302 | -61.29838 | 34839 ft | 481 kts | 63° |
| 2026-05-07 18:34 | -29.67183 | -61.22540 | 34831 ft | 478 kts | 63° |
| 2026-05-07 18:34 | -29.65080 | -61.15311 | 34826 ft | 475 kts | 63° |
| 2026-05-07 18:35 | -29.62984 | -61.08129 | 34820 ft | 473 kts | 62° |
| 2026-05-07 18:35 | -29.60891 | -61.00970 | 34832 ft | 471 kts | 62° |
| 2026-05-07 18:36 | -29.58802 | -60.93842 | 34827 ft | 470 kts | 62° |
| 2026-05-07 18:36 | -29.56725 | -60.86769 | 34819 ft | 470 kts | 62° |
| 2026-05-07 18:37 | -29.54626 | -60.79658 | 34807 ft | 470 kts | 61° |
| 2026-05-07 18:37 | -29.52488 | -60.72552 | 34808 ft | 471 kts | 61° |
| 2026-05-07 18:38 | -29.50333 | -60.65419 | 34808 ft | 473 kts | 61° |
| 2026-05-07 18:38 | -29.48178 | -60.58278 | 34804 ft | 475 kts | 61° |
| 2026-05-07 18:39 | -29.46377 | -60.52318 | 34807 ft | 477 kts | 61° |
| 2026-05-07 18:39 | -29.44200 | -60.45119 | 34812 ft | 478 kts | 60° |
| 2026-05-07 18:40 | -29.42011 | -60.37897 | 34802 ft | 480 kts | 61° |
| 2026-05-07 18:40 | -29.39831 | -60.30642 | 34797 ft | 481 kts | 61° |
| 2026-05-07 18:41 | -29.37655 | -60.23393 | 34798 ft | 481 kts | 61° |
| 2026-05-07 18:41 | -29.35472 | -60.16142 | 34786 ft | 481 kts | 61° |
| 2026-05-07 18:42 | -29.33296 | -60.08938 | 34784 ft | 480 kts | 61° |
| 2026-05-07 18:42 | -29.31111 | -60.01719 | 34778 ft | 479 kts | 60° |
| 2026-05-07 18:43 | -29.28926 | -59.94520 | 34774 ft | 478 kts | 61° |
| 2026-05-07 18:43 | -29.26738 | -59.87327 | 34766 ft | 478 kts | 61° |
| 2026-05-07 18:44 | -29.24550 | -59.80148 | 34766 ft | 477 kts | 61° |
| 2026-05-07 18:44 | -29.22359 | -59.72970 | 34764 ft | 477 kts | 61° |
| 2026-05-07 18:45 | -29.19987 | -59.65922 | 34762 ft | 467 kts | 53° |
| 2026-05-07 18:45 | -29.16890 | -59.59434 | 34776 ft | 465 kts | 51° |
| 2026-05-07 18:46 | -29.13737 | -59.52955 | 34762 ft | 467 kts | 51° |
| 2026-05-07 18:46 | -29.10631 | -59.46459 | 34760 ft | 470 kts | 52° |
| 2026-05-07 18:47 | -29.07516 | -59.39883 | 34750 ft | 472 kts | 52° |
| 2026-05-07 18:47 | -29.04387 | -59.33272 | 34747 ft | 473 kts | 52° |
| 2026-05-07 18:48 | -29.01250 | -59.26660 | 34748 ft | 474 kts | 52° |
| 2026-05-07 18:48 | -28.98099 | -59.20034 | 34741 ft | 474 kts | 52° |
| 2026-05-07 18:49 | -28.94947 | -59.13418 | 34739 ft | 474 kts | 52° |
| 2026-05-07 18:49 | -28.91797 | -59.06814 | 34735 ft | 472 kts | 52° |
| 2026-05-07 18:50 | -28.88660 | -59.00249 | 34722 ft | 470 kts | 52° |
| 2026-05-07 18:50 | -28.85555 | -58.93758 | 34710 ft | 468 kts | 52° |
| 2026-05-07 18:51 | -28.82473 | -58.87226 | 34702 ft | 467 kts | 52° |
| 2026-05-07 18:51 | -28.79415 | -58.80714 | 34700 ft | 464 kts | 52° |
| 2026-05-07 18:52 | -28.76369 | -58.74250 | 34691 ft | 462 kts | 52° |
| 2026-05-07 18:52 | -28.73328 | -58.67815 | 34686 ft | 460 kts | 52° |
| 2026-05-07 18:53 | -28.70293 | -58.61406 | 34675 ft | 459 kts | 52° |
| 2026-05-07 18:53 | -28.67260 | -58.55010 | 34671 ft | 459 kts | 52° |
| 2026-05-07 18:54 | -28.64225 | -58.48619 | 34667 ft | 460 kts | 52° |
| 2026-05-07 18:54 | -28.61146 | -58.42225 | 34665 ft | 461 kts | 51° |
| 2026-05-07 18:55 | -28.58009 | -58.35830 | 34669 ft | 464 kts | 52° |
| 2026-05-07 18:55 | -28.54850 | -58.29395 | 34654 ft | 467 kts | 52° |
| 2026-05-07 18:56 | -28.51671 | -58.22909 | 34649 ft | 471 kts | 52° |
| 2026-05-07 18:56 | -28.48472 | -58.16385 | 34643 ft | 474 kts | 52° |
| 2026-05-07 18:57 | -28.45253 | -58.09830 | 34637 ft | 476 kts | 53° |
| 2026-05-07 18:57 | -28.42009 | -58.03234 | 34635 ft | 478 kts | 53° |
| 2026-05-07 18:58 | -28.38778 | -57.96674 | 34632 ft | 479 kts | 53° |
| 2026-05-07 18:58 | -28.35522 | -57.90074 | 34628 ft | 479 kts | 53° |
| 2026-05-07 18:59 | -28.32263 | -57.83478 | 34625 ft | 479 kts | 53° |
| 2026-05-07 18:59 | -28.29000 | -57.76889 | 34623 ft | 478 kts | 53° |
| 2026-05-07 19:00 | -28.25739 | -57.70327 | 34619 ft | 477 kts | 53° |
| 2026-05-07 19:00 | -28.22408 | -57.63827 | 34612 ft | 470 kts | 45° |
| 2026-05-07 19:00 | -28.20141 | -57.61321 | 34646 ft | 447 kts | 26° |
| 2026-05-07 19:01 | -28.17440 | -57.59668 | 34631 ft | 437 kts | 13° |
| 2026-05-07 19:01 | -28.14560 | -57.58739 | 34635 ft | 428 kts | 1° |
| 2026-05-07 19:01 | -28.11644 | -57.58514 | 34659 ft | 426 kts | 355° |
| 2026-05-07 19:02 | -28.05682 | -57.58340 | 34620 ft | 429 kts | 354° |
| 2026-05-07 19:02 | -27.99723 | -57.58144 | 34622 ft | 429 kts | 355° |
| 2026-05-07 19:03 | -27.93746 | -57.57910 | 34626 ft | 430 kts | 355° |
| 2026-05-07 19:03 | -27.87777 | -57.57662 | 34635 ft | 430 kts | 355° |
| 2026-05-07 19:04 | -27.81795 | -57.57411 | 34636 ft | 430 kts | 354° |
| 2026-05-07 19:04 | -27.75822 | -57.57163 | 34633 ft | 429 kts | 354° |
| 2026-05-07 19:05 | -27.69847 | -57.56915 | 34646 ft | 429 kts | 354° |
| 2026-05-07 19:05 | -27.63873 | -57.56667 | 34632 ft | 430 kts | 354° |
| 2026-05-07 19:06 | -27.57888 | -57.56420 | 34644 ft | 431 kts | 354° |
| 2026-05-07 19:06 | -27.48921 | -57.56049 | 34639 ft | 432 kts | 354° |
| 2026-05-07 19:07 | -27.42897 | -57.55801 | 34628 ft | 433 kts | 353° |
| 2026-05-07 19:07 | -27.36830 | -57.55634 | 34634 ft | 433 kts | 353° |
| 2026-05-07 19:08 | -27.30794 | -57.55523 | 34629 ft | 435 kts | 353° |
| 2026-05-07 19:08 | -27.24741 | -57.55406 | 34627 ft | 436 kts | 353° |
| 2026-05-07 19:09 | -27.18696 | -57.55279 | 34622 ft | 437 kts | 353° |
| 2026-05-07 19:09 | -27.12605 | -57.55148 | 34626 ft | 438 kts | 353° |
| 2026-05-07 19:10 | -27.06505 | -57.55016 | 34618 ft | 439 kts | 352° |
| 2026-05-07 19:10 | -27.00390 | -57.54884 | 34619 ft | 439 kts | 352° |
| 2026-05-07 19:11 | -26.94274 | -57.54752 | 34622 ft | 440 kts | 352° |
| 2026-05-07 19:11 | -26.88181 | -57.54621 | 34616 ft | 441 kts | 352° |
| 2026-05-07 19:12 | -26.82007 | -57.54489 | 34609 ft | 442 kts | 352° |
| 2026-05-07 19:12 | -26.75887 | -57.54358 | 34622 ft | 442 kts | 352° |
| 2026-05-07 19:13 | -26.69739 | -57.54225 | 34603 ft | 439 kts | 351° |
| 2026-05-07 19:13 | -26.66723 | -57.54155 | 34307 ft | 431 kts | 351° |
| 2026-05-07 19:13 | -26.63726 | -57.54089 | 33730 ft | 429 kts | 351° |
| 2026-05-07 19:14 | -26.60756 | -57.54027 | 32827 ft | 427 kts | 351° |
| 2026-05-07 19:14 | -26.57781 | -57.53967 | 31849 ft | 426 kts | 351° |
| 2026-05-07 19:14 | -26.54824 | -57.53906 | 30895 ft | 425 kts | 351° |
| 2026-05-07 19:14 | -26.51878 | -57.53843 | 29939 ft | 422 kts | 352° |
| 2026-05-07 19:15 | -26.48941 | -57.53782 | 28806 ft | 420 kts | 352° |
| 2026-05-07 19:15 | -26.46021 | -57.53745 | 27417 ft | 422 kts | 352° |
| 2026-05-07 19:15 | -26.43063 | -57.53717 | 25962 ft | 426 kts | 353° |
| 2026-05-07 19:15 | -26.40091 | -57.53686 | 24613 ft | 428 kts | 353° |
| 2026-05-07 19:16 | -26.37118 | -57.53651 | 23438 ft | 426 kts | 354° |
| 2026-05-07 19:16 | -26.34165 | -57.53613 | 22294 ft | 421 kts | 354° |
| 2026-05-07 19:16 | -26.31264 | -57.53574 | 21242 ft | 413 kts | 354° |
| 2026-05-07 19:16 | -26.28446 | -57.53537 | 20227 ft | 406 kts | 354° |
| 2026-05-07 19:17 | -26.25610 | -57.53502 | 19201 ft | 400 kts | 355° |
| 2026-05-07 19:17 | -26.22874 | -57.53470 | 18219 ft | 395 kts | 355° |
| 2026-05-07 19:17 | -26.20147 | -57.53439 | 17161 ft | 390 kts | 355° |
| 2026-05-07 19:17 | -26.17442 | -57.53408 | 16088 ft | 386 kts | 356° |
| 2026-05-07 19:18 | -26.14767 | -57.53377 | 15058 ft | 382 kts | 356° |
| 2026-05-07 19:18 | -26.12125 | -57.53346 | 14067 ft | 378 kts | 357° |
| 2026-05-07 19:18 | -26.09507 | -57.53315 | 13120 ft | 374 kts | 358° |
| 2026-05-07 19:18 | -26.06925 | -57.53345 | 12165 ft | 367 kts | 354° |
| 2026-05-07 19:19 | -26.04403 | -57.53556 | 11249 ft | 360 kts | 351° |
| 2026-05-07 19:19 | -26.01928 | -57.53835 | 10372 ft | 354 kts | 350° |
| 2026-05-07 19:19 | -25.99497 | -57.54123 | 9523 ft | 348 kts | 349° |
| 2026-05-07 19:19 | -25.97118 | -57.54399 | 8823 ft | 336 kts | 350° |
| 2026-05-07 19:20 | -25.94880 | -57.54646 | 8682 ft | 311 kts | 350° |
| 2026-05-07 19:20 | -25.92808 | -57.54867 | 8530 ft | 288 kts | 349° |
| 2026-05-07 19:20 | -25.90869 | -57.55072 | 8228 ft | 276 kts | 349° |
| 2026-05-07 19:20 | -25.88963 | -57.55277 | 7909 ft | 273 kts | 349° |
| 2026-05-07 19:21 | -25.87090 | -57.55477 | 7627 ft | 268 kts | 349° |
| 2026-05-07 19:21 | -25.85254 | -57.55671 | 7360 ft | 263 kts | 349° |
| 2026-05-07 19:21 | -25.83445 | -57.55861 | 7055 ft | 259 kts | 349° |
| 2026-05-07 19:21 | -25.81665 | -57.56048 | 6757 ft | 255 kts | 349° |
| 2026-05-07 19:22 | -25.79909 | -57.56232 | 6460 ft | 251 kts | 350° |
| 2026-05-07 19:22 | -25.78195 | -57.56409 | 6293 ft | 239 kts | 350° |
| 2026-05-07 19:22 | -25.76601 | -57.56572 | 6177 ft | 221 kts | 349° |
| 2026-05-07 19:22 | -25.75121 | -57.56723 | 5993 ft | 209 kts | 349° |
| 2026-05-07 19:23 | -25.73706 | -57.56871 | 5564 ft | 207 kts | 350° |
| 2026-05-07 19:23 | -25.72262 | -57.57025 | 5043 ft | 210 kts | 351° |
| 2026-05-07 19:23 | -25.70806 | -57.57178 | 4604 ft | 210 kts | 352° |
| 2026-05-07 19:23 | -25.69366 | -57.57328 | 4236 ft | 207 kts | 352° |
| 2026-05-07 19:24 | -25.67922 | -57.57477 | 3703 ft | 211 kts | 352° |
| 2026-05-07 19:24 | -25.66456 | -57.57630 | 3233 ft | 212 kts | 353° |
| 2026-05-07 19:24 | -25.64995 | -57.57783 | 2874 ft | 207 kts | 354° |
| 2026-05-07 19:24 | -25.63558 | -57.57930 | 2349 ft | 211 kts | 353° |
| 2026-05-07 19:25 | -25.62081 | -57.58083 | 1927 ft | 212 kts | 353° |
| 2026-05-07 19:25 | -25.60648 | -57.58229 | 1931 ft | 204 kts | 353° |
| 2026-05-07 19:25 | -25.59189 | -57.58380 | 1991 ft | 216 kts | 354° |
| 2026-05-07 19:25 | -25.57675 | -57.58537 | 1986 ft | 220 kts | 354° |
| 2026-05-07 19:26 | -25.56152 | -57.58695 | 1985 ft | 219 kts | 353° |
| 2026-05-07 19:26 | -25.54627 | -57.58819 | 1995 ft | 220 kts | 356° |
| 2026-05-07 19:26 | -25.53117 | -57.58798 | 1998 ft | 221 kts | 0° |
| 2026-05-07 19:26 | -25.51581 | -57.58657 | 1991 ft | 220 kts | 3° |
| 2026-05-07 19:27 | -25.50079 | -57.58424 | 1996 ft | 217 kts | 7° |
| 2026-05-07 19:27 | -25.48598 | -57.58116 | 2004 ft | 218 kts | 8° |
| 2026-05-07 19:27 | -25.47100 | -57.57771 | 2007 ft | 221 kts | 8° |
| 2026-05-07 19:27 | -25.45604 | -57.57412 | 1963 ft | 217 kts | 8° |
| 2026-05-07 19:28 | -25.44131 | -57.57053 | 1706 ft | 217 kts | 9° |
| 2026-05-07 19:28 | -25.42668 | -57.56643 | 1559 ft | 214 kts | 13° |
| 2026-05-07 19:28 | -25.41742 | -57.56317 | 1684 ft | 207 kts | 14° |
| 2026-05-07 19:28 | -25.40423 | -57.55910 | 2021 ft | 185 kts | 10° |
| 2026-05-07 19:29 | -25.39247 | -57.55509 | 2181 ft | 170 kts | 12° |
| 2026-05-07 19:29 | -25.38168 | -57.55136 | 2028 ft | 153 kts | 6° |
| 2026-05-07 19:29 | -25.37181 | -57.54971 | 1960 ft | 134 kts | 2° |
| 2026-05-07 19:29 | -25.36351 | -57.54879 | 2033 ft | 110 kts | 1° |
| 2026-05-07 19:30 | -25.35596 | -57.54752 | 2057 ft | 110 kts | 5° |
| 2026-05-07 19:30 | -25.34835 | -57.54562 | 1971 ft | 112 kts | 7° |
| 2026-05-07 19:30 | -25.34098 | -57.54394 | 1872 ft | 108 kts | 8° |
| 2026-05-07 19:30 | -25.33362 | -57.54177 | 1775 ft | 111 kts | 8° |
| 2026-05-07 19:31 | -25.32578 | -57.53988 | 1629 ft | 118 kts | 6° |
| 2026-05-07 19:31 | -25.31762 | -57.53805 | 1471 ft | 120 kts | 7° |
| 2026-05-07 19:31 | -25.30953 | -57.53605 | 1397 ft | 121 kts | 8° |
| 2026-05-07 19:31 | -25.30105 | -57.53384 | 1207 ft | 128 kts | 6° |
| 2026-05-07 19:32 | -25.29235 | -57.53196 | 1070 ft | 128 kts | 8° |
| 2026-05-07 19:32 | -25.28353 | -57.52979 | 916 ft | 133 kts | 10° |
| 2026-05-07 19:32 | -25.27438 | -57.52762 | 739 ft | 137 kts | 13° |
| 2026-05-07 19:32 | -25.26512 | -57.52530 | 546 ft | 137 kts | 13° |
| 2026-05-07 19:33 | -25.25578 | -57.52300 | 356 ft | 137 kts | 13° |
| 2026-05-07 19:33 | -25.24728 | -57.52096 | 288 ft | 89 kts | 14° |
| 2026-05-07 19:33 | -25.24434 | -57.52025 | 285 ft | 23 kts | 12° |
| 2026-05-07 19:33 | -25.24294 | -57.51981 | 284 ft | 14 kts | 23° |
| 2026-05-07 19:34 | -25.24266 | -57.51943 | 283 ft | 4 kts | 70° |
| 2026-05-07 19:34 | -25.24264 | -57.51908 | 283 ft | 5 kts | 95° |
| 2026-05-07 19:34 | -25.24272 | -57.51868 | 282 ft | 6 kts | 105° |
| 2026-05-07 19:34 | -25.24282 | -57.51825 | 282 ft | 6 kts | 103° |
| 2026-05-07 19:35 | -25.24290 | -57.51784 | 283 ft | 6 kts | 101° |
| 2026-05-07 19:35 | -25.24299 | -57.51742 | 281 ft | 6 kts | 103° |
| 2026-05-07 19:35 | -25.24308 | -57.51701 | 283 ft | 5 kts | 104° |
| 2026-05-07 19:35 | -25.24317 | -57.51661 | 281 ft | 5 kts | 104° |
| 2026-05-07 19:36 | -25.24325 | -57.51621 | 281 ft | 5 kts | 99° |
| 2026-05-07 19:36 | -25.24311 | -57.51590 | 283 ft | 5 kts | 18° |
| 2026-05-07 19:36 | -25.24287 | -57.51565 | 283 ft | 5 kts | 70° |
| 2026-05-07 19:36 | -25.24291 | -57.51528 | 280 ft | 4 kts | 121° |
| 2026-05-07 19:37 | -25.24304 | -57.51515 | 280 ft | 0 kts | 141° |